Ship Status Report: callsign HKHE5

sailwx.info

Track history (hours):
 
Tides and Currents Weather Stations Pressure Air Temp Water Temp Dewpoint Dewpoint Depression Visibility Wind Speed Wind Dir Waves Ship Positions

Callsign HKHE5 (name unknown)

Last reported at 2018-Jun-13 17:34 UTC. Time now 2018-Jun-23 10:19 UTC.
Position N 09°30' W 079°50'.
Warning: this ship's position is 9 days out of date.

AWS

Date/timePositionNaut miles runAvg speedWind from/ knotsBaromVisibWave heightAir tempDewpointWater temp
2018-Jun-13 17:34N 09°30' W 079°50'1 7.7
2018-Jun-13 17:29N 09°29' W 079°51'4 7.6
2018-Jun-13 16:59N 09°26' W 079°54'4 7.3
2018-Jun-13 16:30N 09°23' W 079°55'2 4.0
2018-Jun-13 16:00N 09°21' W 079°55'0 0.0
2018-Jun-13 15:30N 09°21' W 079°55'0 0.0
2018-Jun-13 15:00N 09°21' W 079°55'0 0.0
2018-Jun-13 14:30N 09°21' W 079°55'0 0.0
2018-Jun-13 14:00N 09°21' W 079°55'0 0.0
2018-Jun-13 13:30N 09°21' W 079°55'0 0.0
2018-Jun-13 13:00N 09°21' W 079°55'0 0.0
2018-Jun-13 12:30N 09°21' W 079°55'0 0.0
2018-Jun-13 12:00N 09°21' W 079°55'0 0.0
2018-Jun-13 11:30N 09°21' W 079°55'0 0.0
2018-Jun-13 11:00N 09°21' W 079°55'0 0.0
2018-Jun-12 21:55N 09°21' W 079°55'0 0.0
2018-Jun-12 21:31N 09°21' W 079°55'0 0.0
2018-Jun-12 21:01N 09°21' W 079°55'0 0.0
2018-Jun-12 20:31N 09°21' W 079°55'0 0.0
2018-Jun-12 20:01N 09°21' W 079°55'0 0.0
2018-Jun-12 19:30N 09°21' W 079°55'0 0.0
2018-Jun-12 19:01N 09°21' W 079°55'0 0.4
2018-Jun-12 18:31N 09°21' W 079°55'0 0.5
2018-Jun-12 18:01N 09°21' W 079°55'0 0.5
2018-Jun-12 17:30N 09°21' W 079°55'2 4.5
2018-Jun-12 17:00N 09°23' W 079°55'3 5.2
2018-Jun-12 16:30N 09°26' W 079°54'2 4.7
2018-Jun-12 16:00N 09°28' W 079°53'0 0.7
2018-Jun-12 15:24N 09°28' W 079°52'3 3.7
2018-Jun-12 14:41N 09°29' W 079°50'1 4.5
2018-Jun-12 14:30N 09°30' W 079°49'  
2018-Jun-09 13:14N 10°22' W 075°31'0 0.3
2018-Jun-09 12:55N 10°22' W 075°31'0 0.2
2018-Jun-09 12:06N 10°22' W 075°31'0 0.4
2018-Jun-09 12:00N 10°22' W 075°31'  
Track history (hours):
 
Tides and Currents Weather Stations Pressure Air Temp Water Temp Dewpoint Dewpoint Depression Visibility Wind Speed Wind Dir Waves Ship Positions

Callsign HKHE5 (name unknown)

Last reported at 2018-Jun-13 17:34 UTC. Time now 2018-Jun-23 10:19 UTC.
Position N 09°30' W 079°50'.
Warning: this ship's position is 9 days out of date.

AWS

Date/timePositionNaut miles runAvg speedWind from/ knotsBaromVisibWave heightAir tempDewpointWater temp
2018-Jun-13 17:34N 09°30' W 079°50'1 7.7
2018-Jun-13 17:29N 09°29' W 079°51'4 7.6
2018-Jun-13 16:59N 09°26' W 079°54'4 7.3
2018-Jun-13 16:30N 09°23' W 079°55'2 4.0
2018-Jun-13 16:00N 09°21' W 079°55'0 0.0
2018-Jun-13 15:30N 09°21' W 079°55'0 0.0
2018-Jun-13 15:00N 09°21' W 079°55'0 0.0
2018-Jun-13 14:30N 09°21' W 079°55'0 0.0
2018-Jun-13 14:00N 09°21' W 079°55'0 0.0
2018-Jun-13 13:30N 09°21' W 079°55'0 0.0
2018-Jun-13 13:00N 09°21' W 079°55'0 0.0
2018-Jun-13 12:30N 09°21' W 079°55'0 0.0
2018-Jun-13 12:00N 09°21' W 079°55'0 0.0
2018-Jun-13 11:30N 09°21' W 079°55'0 0.0
2018-Jun-13 11:00N 09°21' W 079°55'0 0.0
2018-Jun-12 21:55N 09°21' W 079°55'0 0.0
2018-Jun-12 21:31N 09°21' W 079°55'0 0.0
2018-Jun-12 21:01N 09°21' W 079°55'0 0.0
2018-Jun-12 20:31N 09°21' W 079°55'0 0.0
2018-Jun-12 20:01N 09°21' W 079°55'0 0.0
2018-Jun-12 19:30N 09°21' W 079°55'0 0.0
2018-Jun-12 19:01N 09°21' W 079°55'0 0.4
2018-Jun-12 18:31N 09°21' W 079°55'0 0.5
2018-Jun-12 18:01N 09°21' W 079°55'0 0.5
2018-Jun-12 17:30N 09°21' W 079°55'2 4.5
2018-Jun-12 17:00N 09°23' W 079°55'3 5.2
2018-Jun-12 16:30N 09°26' W 079°54'2 4.7
2018-Jun-12 16:00N 09°28' W 079°53'0 0.7
2018-Jun-12 15:24N 09°28' W 079°52'3 3.7
2018-Jun-12 14:41N 09°29' W 079°50'1 4.5
2018-Jun-12 14:30N 09°30' W 079°49'  
2018-Jun-09 13:14N 10°22' W 075°31'0 0.3
2018-Jun-09 12:55N 10°22' W 075°31'0 0.2
2018-Jun-09 12:06N 10°22' W 075°31'0 0.4
2018-Jun-09 12:00N 10°22' W 075°31'  

Dump ship's entire track history